createdAt,value
2019-04-22T03:20:14.587Z,0.00
2019-04-22T03:30:56.601Z,13.20
2019-04-22T03:35:42.158Z,13.10
2019-04-22T03:55:32.669Z,12.60
2019-04-22T04:00:43.171Z,15.50
2019-04-22T04:05:45.443Z,14.50
2019-04-22T04:20:28.572Z,14.60
2019-04-22T04:30:31.931Z,13.70
2019-04-22T04:40:33.210Z,14.10
2019-04-22T04:50:34.832Z,14.50
2019-04-22T05:05:31.666Z,15.70
2019-04-22T05:10:47.814Z,15.00
2019-04-22T05:15:39.332Z,16.20
2019-04-22T05:20:42.221Z,17.50
2019-04-22T05:25:28.454Z,20.00
2019-04-22T05:35:26.302Z,20.30
2019-04-22T05:50:24.051Z,17.70
2019-04-22T05:55:30.318Z,16.60
2019-04-22T06:00:25.677Z,15.10
2019-04-22T06:05:17.161Z,14.20
2019-04-22T06:10:33.102Z,14.20
2019-04-22T06:15:21.886Z,12.40
2019-04-22T06:20:25.562Z,12.50
2019-04-22T06:25:47.860Z,11.90
2019-04-22T06:40:27.431Z,10.50
2019-04-22T06:45:18.979Z,11.10
2019-04-22T06:50:32.842Z,10.20
2019-04-22T06:55:27.123Z,9.80
2019-04-22T07:15:42.361Z,9.30
2019-04-22T07:20:33.296Z,8.00
2019-04-22T07:25:19.015Z,7.70
2019-04-22T07:30:26.483Z,7.90
2019-04-22T07:35:28.895Z,6.90
2019-04-22T07:40:26.947Z,7.50
2019-04-22T07:50:31.218Z,7.00
2019-04-22T07:55:25.538Z,6.80
2019-04-22T08:05:22.876Z,5.80
2019-04-22T08:10:35.287Z,5.40
2019-04-22T08:15:27.245Z,6.50
2019-04-22T08:20:30.811Z,5.90
2019-04-22T08:25:25.013Z,6.00
2019-04-22T08:40:32.848Z,5.70
2019-04-22T08:45:27.447Z,5.50
2019-04-22T08:50:20.101Z,5.50
2019-04-22T08:55:33.975Z,6.60
2019-04-22T09:00:19.998Z,7.50
2019-04-22T09:05:42.306Z,5.40
2019-04-22T09:20:26.122Z,5.80
2019-04-22T09:25:32.727Z,5.70
2019-04-22T09:30:24.052Z,4.90
2019-04-22T09:40:15.242Z,9.10
2019-04-22T09:45:21.387Z,7.00
2019-04-22T09:55:27.047Z,7.80
2019-04-22T10:00:15.519Z,4.10
2019-04-22T10:05:27.492Z,4.20
2019-04-22T10:10:15.057Z,5.00
2019-04-22T10:15:26.755Z,4.00
2019-04-22T10:20:20.584Z,4.20
2019-04-22T10:25:22.986Z,4.10
2019-04-22T10:30:35.777Z,5.30
2019-04-22T10:35:06.807Z,4.00
2019-04-22T10:40:03.974Z,3.80
2019-04-22T10:45:01.150Z,4.00
2019-04-22T10:50:02.593Z,3.70
2019-04-22T10:55:01.325Z,4.20
2019-04-22T11:00:01.119Z,4.50
2019-04-22T11:05:02.021Z,4.20
2019-04-22T11:15:01.421Z,3.90
2019-04-22T11:20:01.930Z,4.10
2019-04-22T11:25:01.328Z,4.00
2019-04-22T11:30:01.900Z,3.90
2019-04-22T11:35:01.678Z,3.90
2019-04-22T11:40:11.389Z,3.70
2019-04-22T11:45:01.392Z,4.10
2019-04-22T11:50:02.069Z,3.60
2019-04-22T11:55:01.212Z,3.50
2019-04-22T12:00:01.097Z,3.10
2019-04-22T12:05:01.907Z,3.40
2019-04-22T12:10:15.225Z,3.10
2019-04-22T12:15:01.102Z,3.20
2019-04-22T12:20:05.069Z,3.90
2019-04-22T12:25:01.053Z,3.70
2019-04-22T12:30:02.887Z,3.50
2019-04-22T12:35:01.835Z,3.20
2019-04-22T12:40:02.549Z,3.00
2019-04-22T12:45:02.321Z,3.10
2019-04-22T12:50:08.999Z,3.30
2019-04-22T12:55:01.628Z,3.30
2019-04-22T13:00:01.946Z,3.20
2019-04-22T13:05:01.289Z,2.90
2019-04-22T13:10:01.463Z,3.10
2019-04-22T13:15:01.543Z,2.50
2019-04-22T13:20:02.490Z,2.60
2019-04-22T13:25:02.094Z,2.50
2019-04-22T13:30:05.723Z,2.70
2019-04-22T13:35:02.253Z,2.60
2019-04-22T13:40:01.314Z,2.70
2019-04-22T13:45:01.953Z,2.60
2019-04-22T13:50:32.592Z,2.60
2019-04-22T13:55:27.452Z,2.70
2019-04-22T14:00:03.844Z,2.70
2019-04-22T14:05:01.127Z,2.50
2019-04-22T14:10:02.478Z,2.10
2019-04-22T14:15:02.317Z,2.00
2019-04-22T14:20:02.492Z,2.10
2019-04-22T14:25:01.071Z,2.10
2019-04-22T14:30:01.985Z,2.30
2019-04-22T14:35:01.041Z,2.20
2019-04-22T14:40:05.370Z,2.10
2019-04-22T14:45:41.804Z,2.10
2019-04-22T14:50:20.654Z,2.10
2019-04-22T14:55:09.073Z,2.00
2019-04-22T15:00:02.281Z,2.40
2019-04-22T15:05:01.081Z,2.10
2019-04-22T15:10:01.917Z,3.60
2019-04-22T15:15:01.599Z,5.40
2019-04-22T15:20:01.589Z,2.30
2019-04-22T15:25:01.069Z,2.40
2019-04-22T15:30:01.393Z,2.20
2019-04-22T15:35:01.774Z,2.90
2019-04-22T15:40:02.697Z,2.30
2019-04-22T15:45:02.553Z,2.20
2019-04-22T15:50:01.039Z,2.40
2019-04-22T15:55:02.740Z,2.20
2019-04-22T16:00:14.338Z,2.30
2019-04-22T16:05:02.544Z,3.90
2019-04-22T16:10:01.802Z,3.10
2019-04-22T16:15:03.181Z,2.40
2019-04-22T16:20:01.550Z,2.40
2019-04-22T16:25:02.370Z,2.20
2019-04-22T16:30:01.469Z,2.10
2019-04-22T16:35:01.051Z,2.20
2019-04-22T16:40:01.069Z,2.30
2019-04-22T16:45:01.890Z,2.50
2019-04-22T16:50:01.780Z,2.70
2019-04-22T16:55:01.114Z,6.60
2019-04-22T17:00:02.740Z,2.90
2019-04-22T17:05:01.988Z,2.70
2019-04-22T17:10:01.901Z,2.80
2019-04-22T17:15:07.564Z,2.80
2019-04-22T17:20:01.066Z,3.00
2019-04-22T17:25:02.643Z,3.50
2019-04-22T17:30:02.417Z,3.40
2019-04-22T17:35:02.237Z,4.40
2019-04-22T17:40:18.308Z,3.70
2019-04-22T17:50:30.434Z,4.10
2019-04-22T17:55:21.372Z,4.20
2019-04-22T18:00:18.952Z,4.40
2019-04-22T18:05:05.466Z,4.70
2019-04-22T18:40:21.168Z,5.00
2019-04-22T19:20:27.202Z,5.40
2019-04-22T20:00:14.469Z,6.30
2019-04-22T20:10:19.588Z,5.60
2019-04-22T22:15:22.698Z,6.90
2019-04-22T22:50:20.881Z,7.10
